Avon, Colorado
Current Conditions -  °F | °C
As of 1:35 AM on Monday 22 Dec 2014 (Local Time) from KEGE Reporting Station
Overcast Overcast  
Wind Chill: -3°   Ceiling: 1900
Heat Index:   Visibility: 5mi
Dew Point:   Wind: 9mph
Humidity: 93%   Direction: 300°WNW
Pressure: 29.85"   Gusts: NA
Location:  39.63°N, 106.52°W
Report Text: KEGE 220835Z AUTO 30008KT 5SM FEW009 BKN019 OVC049 01/00 A2985 RMK AO1
Loading
Personal Weather Stations






























Interactive Weather Map New forecast layout! Learn more

10-Day Weather Forecast

Advertisements
Track Severe Weather on mobile